Time;durP1;ratioP1;P1;durP2;ratioP2;P2;SDS_P1;SDS_P2;PMS_P1;PMS_P2;Temp;Humidity;BMP_temperature;BMP_pressure;BME280_temperature;BME280_humidity;BME280_pressure;Samples;Min_cycle;Max_cycle;Signal;HPM_P1;HPM_P2
2023/07/27 00:00:16;;;;;;;1.72;1.30;;;18.30;99.90;;;;;;1893399;75;21089;-80
2023/07/27 00:05:45;;;;;;;1.10;1.00;;;18.30;99.90;;;;;;1929001;72;22113;-78
2023/07/27 00:08:37;;;;;;;1.30;1.20;;;18.20;99.90;;;;;;1884793;75;21126;-79
2023/07/27 00:11:28;;;;;;;1.50;1.10;;;18.20;99.90;;;;;;1906098;75;21192;-79
2023/07/27 00:16:59;;;;;;;6.37;1.22;;;18.10;99.90;;;;;;1942855;72;22260;-80
2023/07/27 00:19:50;;;;;;;2.02;1.30;;;18.10;99.90;;;;;;1917711;73;21094;-79
2023/07/27 00:22:42;;;;;;;2.95;1.50;;;18.10;99.90;;;;;;1916734;75;21093;-80
2023/07/27 00:25:33;;;;;;;2.98;1.15;;;18.10;99.90;;;;;;1920956;73;21209;-80
2023/07/27 00:28:26;;;;;;;1.60;1.27;;;18.10;99.90;;;;;;1929083;73;21125;-79
2023/07/27 00:31:17;;;;;;;1.30;1.00;;;18.00;99.90;;;;;;1917748;73;21131;-80
2023/07/27 00:36:49;;;;;;;1.75;1.40;;;18.00;99.90;;;;;;1953272;72;22170;-81
2023/07/27 00:39:40;;;;;;;1.85;1.42;;;18.00;99.90;;;;;;1913517;75;21095;-81
2023/07/27 00:42:32;;;;;;;1.85;1.17;;;18.00;99.90;;;;;;1889124;75;21106;-81
2023/07/27 00:45:23;;;;;;;1.80;1.30;;;18.00;99.90;;;;;;1904569;75;21590;-81
2023/07/27 00:48:15;;;;;;;2.50;1.50;;;18.00;99.90;;;;;;1886952;75;21179;-81
2023/07/27 00:53:46;;;;;;;3.05;1.27;;;18.00;99.90;;;;;;1940093;72;22695;-80
2023/07/27 00:56:39;;;;;;;1.90;1.37;;;17.90;99.90;;;;;;1885568;74;21176;-81
2023/07/27 01:02:10;;;;;;;1.90;1.20;;;17.80;99.90;;;;;;1936672;72;22320;-79
2023/07/27 01:05:02;;;;;;;3.33;1.40;;;17.80;99.90;;;;;;1907976;74;21124;-81
2023/07/27 01:07:53;;;;;;;2.50;1.20;;;17.70;99.90;;;;;;1901193;75;21098;-79
2023/07/27 01:10:50;;;;;;;3.10;1.37;;;17.70;99.90;;;;;;1898515;75;21151;-79
2023/07/27 01:13:45;;;;;;;3.00;1.30;;;17.70;99.90;;;;;;1904373;75;21119;-79
2023/07/27 01:16:40;;;;;;;2.45;1.55;;;17.70;99.90;;;;;;1891885;75;21178;-79
2023/07/27 01:19:49;;;;;;;1.72;1.20;;;17.60;99.90;;;;;;1893469;75;21338;-79
2023/07/27 01:23:09;;;;;;;2.20;1.40;;;17.60;99.90;;;;;;1889906;74;21125;-79
2023/07/27 01:26:24;;;;;;;2.62;1.40;;;17.60;99.90;;;;;;1892025;74;21113;-79
2023/07/27 01:32:03;;;;;;;2.45;1.35;;;17.60;99.90;;;;;;1930270;72;22178;-81
2023/07/27 01:34:58;;;;;;;3.42;1.52;;;17.60;99.90;;;;;;1900235;75;21115;-81
2023/07/27 01:37:52;;;;;;;2.40;1.37;;;17.60;99.90;;;;;;1899209;75;21088;-79
2023/07/27 01:40:46;;;;;;;1.70;1.22;;;17.60;99.90;;;;;;1890453;75;21178;-79
2023/07/27 01:46:19;;;;;;;2.02;1.17;;;17.50;99.90;;;;;;1962228;72;22294;-80
2023/07/27 01:49:13;;;;;;;2.20;1.32;;;17.50;99.90;;;;;;1883535;75;21101;-79
2023/07/27 01:52:07;;;;;;;3.52;1.50;;;17.30;99.90;;;;;;1904933;74;21086;-79
2023/07/27 01:57:39;;;;;;;2.00;1.50;;;17.20;99.90;;;;;;1952219;72;22234;-81
2023/07/27 02:00:31;;;;;;;1.80;1.50;;;17.20;99.90;;;;;;1912265;74;21095;-81
2023/07/27 02:03:22;;;;;;;1.90;1.20;;;17.20;99.90;;;;;;1915689;73;21525;-80
2023/07/27 02:08:53;;;;;;;3.35;1.62;;;17.20;99.90;;;;;;1950369;72;22313;-79
2023/07/27 02:11:46;;;;;;;2.42;1.32;;;17.20;99.90;;;;;;1947642;73;21139;-79
2023/07/27 02:14:42;;;;;;;2.80;1.30;;;17.30;99.90;;;;;;1939524;73;21200;-79
2023/07/27 02:17:38;;;;;;;3.42;1.20;;;17.20;99.90;;;;;;1941109;73;21166;-80
2023/07/27 02:20:32;;;;;;;1.72;1.37;;;17.10;99.90;;;;;;1943429;73;21130;-80
2023/07/27 02:23:24;;;;;;;1.90;1.40;;;17.10;99.90;;;;;;1948119;73;21134;-79
2023/07/27 02:26:16;;;;;;;2.42;1.60;;;17.10;99.90;;;;;;1935879;73;21132;-81
2023/07/27 02:31:47;;;;;;;1.55;1.20;;;17.10;99.90;;;;;;1967624;72;22193;-79
2023/07/27 02:34:39;;;;;;;2.10;1.25;;;17.10;99.90;;;;;;1922750;73;21093;-79
2023/07/27 02:37:32;;;;;;;2.00;1.50;;;17.10;99.90;;;;;;1912447;73;21171;-80
2023/07/27 02:43:03;;;;;;;1.30;1.17;;;17.00;99.90;;;;;;1957349;72;22286;-81
2023/07/27 02:45:59;;;;;;;1.60;1.10;;;16.90;99.90;;;;;;1917185;75;21105;-79
2023/07/27 02:51:31;;;;;;;1.92;1.20;;;16.90;99.90;;;;;;1957135;72;22130;-81
2023/07/27 02:54:23;;;;;;;2.12;1.47;;;16.90;99.90;;;;;;1923926;74;21506;-81
2023/07/27 02:57:15;;;;;;;1.67;1.47;;;16.90;99.90;;;;;;1919847;74;21083;-81
2023/07/27 03:00:10;;;;;;;2.75;1.30;;;16.90;99.90;;;;;;1931157;74;21128;-79
2023/07/27 03:03:01;;;;;;;1.65;1.30;;;17.00;99.90;;;;;;1917827;74;21423;-79
2023/07/27 03:05:59;;;;;;;2.15;1.40;;;17.00;99.90;;;;;;1908926;74;21087;-80
2023/07/27 03:08:51;;;;;;;1.92;1.47;;;17.00;99.90;;;;;;1934447;74;21079;-79
2023/07/27 03:11:43;;;;;;;2.85;1.40;;;17.00;99.90;;;;;;1901561;75;21115;-79
2023/07/27 03:14:34;;;;;;;1.60;1.50;;;17.00;99.90;;;;;;1900875;74;21599;-79
2023/07/27 03:17:25;;;;;;;3.22;1.55;;;16.90;99.90;;;;;;1925145;74;21154;-80
2023/07/27 03:20:17;;;;;;;1.85;1.52;;;16.90;99.90;;;;;;1910620;74;21539;-79
2023/07/27 03:23:08;;;;;;;2.72;1.67;;;16.80;99.90;;;;;;1910602;74;21091;-79
2023/07/27 03:26:00;;;;;;;1.57;1.47;;;16.80;99.90;;;;;;1912850;74;21168;-80
2023/07/27 03:28:52;;;;;;;2.47;1.40;;;16.70;99.90;;;;;;1877255;75;21172;-80
2023/07/27 03:31:44;;;;;;;2.25;1.45;;;16.70;99.90;;;;;;1918993;74;21172;-80
2023/07/27 03:34:35;;;;;;;2.00;1.40;;;16.60;99.90;;;;;;1913229;74;21165;-80
2023/07/27 03:37:26;;;;;;;2.40;1.50;;;16.60;99.90;;;;;;1925811;74;21135;-80
2023/07/27 03:42:57;;;;;;;2.98;1.22;;;16.50;99.90;;;;;;1915748;72;22240;-80
2023/07/27 03:48:28;;;;;;;2.70;1.25;;;16.50;99.90;;;;;;1940268;72;22284;-79
2023/07/27 03:54:00;;;;;;;4.03;1.98;;;16.40;99.90;;;;;;1930901;72;22178;-81
2023/07/27 03:56:58;;;;;;;2.40;1.70;;;16.40;99.90;;;;;;1888140;75;21383;-80
2023/07/27 04:02:29;;;;;;;2.40;1.65;;;16.30;99.90;;;;;;1912461;72;22437;-79
2023/07/27 04:08:01;;;;;;;2.50;1.62;;;16.50;99.90;;;;;;1957244;72;22208;-81
2023/07/27 04:10:53;;;;;;;1.40;1.27;;;16.50;99.90;;;;;;1928166;73;21105;-81
2023/07/27 04:16:26;;;;;;;2.02;1.47;;;16.50;99.90;;;;;;1951834;72;22156;-79
2023/07/27 04:21:56;;;;;;;2.95;1.98;;;16.30;99.90;;;;;;1941578;72;22125;-79
2023/07/27 04:27:26;;;;;;;2.40;1.62;;;16.20;99.90;;;;;;1937748;72;22435;-81
2023/07/27 04:30:17;;;;;;;2.65;1.50;;;16.20;99.90;;;;;;1907752;74;21117;-79
2023/07/27 04:33:09;;;;;;;3.02;1.65;;;16.20;99.90;;;;;;1888784;75;21146;-79
2023/07/27 04:36:02;;;;;;;3.40;1.77;;;16.20;99.90;;;;;;1910886;75;21191;-80
2023/07/27 04:38:53;;;;;;;3.15;1.60;;;16.30;99.90;;;;;;1903379;75;21149;-80
2023/07/27 04:41:45;;;;;;;2.98;1.55;;;16.30;99.90;;;;;;1889293;75;21194;-79
2023/07/27 04:47:15;;;;;;;3.90;1.40;;;16.50;99.90;;;;;;1938222;72;22196;-79
2023/07/27 04:50:09;;;;;;;2.10;1.45;;;16.50;99.90;;;;;;1878144;75;21140;-81
2023/07/27 04:53:00;;;;;;;2.65;1.60;;;16.50;99.90;;;;;;1887565;75;21115;-81
2023/07/27 04:58:35;;;;;;;2.90;1.62;;;16.40;99.90;;;;;;1936723;72;22158;-81
2023/07/27 05:04:09;;;;;;;3.87;1.72;;;16.30;99.90;;;;;;1961935;72;22187;-81
2023/07/27 05:07:00;;;;;;;5.42;1.80;;;16.50;99.90;;;;;;1925558;73;21175;-80
2023/07/27 05:12:32;;;;;;;3.60;1.67;;;16.50;99.90;;;;;;1947420;72;22332;-80
2023/07/27 05:15:23;;;;;;;2.60;1.62;;;16.50;99.90;;;;;;1910993;75;21101;-80
2023/07/27 05:18:14;;;;;;;4.20;1.75;;;16.60;99.90;;;;;;1904603;75;21098;-80
2023/07/27 05:21:06;;;;;;;3.27;1.50;;;16.70;99.90;;;;;;1915812;74;21058;-80
2023/07/27 05:23:57;;;;;;;10.23;2.20;;;16.70;99.90;;;;;;1902100;75;21078;-81
2023/07/27 05:26:49;;;;;;;3.45;1.80;;;16.70;99.90;;;;;;1914720;75;21097;-80
2023/07/27 05:32:19;;;;;;;2.90;1.75;;;16.60;99.90;;;;;;1956617;72;22710;-82
2023/07/27 05:35:11;;;;;;;3.58;1.90;;;16.70;99.90;;;;;;1928763;73;21130;-80
2023/07/27 05:40:41;;;;;;;4.58;2.27;;;17.00;99.90;;;;;;1937611;72;22193;-81
2023/07/27 05:43:32;;;;;;;2.50;1.55;;;17.00;99.90;;;;;;1902615;75;21175;-81
2023/07/27 05:46:24;;;;;;;3.55;2.00;;;16.80;99.90;;;;;;1902178;75;21070;-81
2023/07/27 05:51:53;;;;;;;2.12;1.72;;;16.70;99.90;;;;;;1948804;72;22325;-81
2023/07/27 05:54:44;;;;;;;3.33;1.90;;;16.80;99.90;;;;;;1919358;73;21114;-79
2023/07/27 05:57:35;;;;;;;2.98;1.92;;;16.80;99.90;;;;;;1916108;75;21164;-79
2023/07/27 06:00:27;;;;;;;4.22;1.90;;;16.80;99.90;;;;;;1922130;73;21080;-79
2023/07/27 06:03:19;;;;;;;3.47;2.05;;;16.80;99.90;;;;;;1916469;75;21171;-79
2023/07/27 06:08:49;;;;;;;6.60;1.95;;;16.90;99.90;;;;;;1931493;72;22330;-82
2023/07/27 06:11:40;;;;;;;3.77;1.67;;;17.00;99.90;;;;;;1900726;75;21117;-81
2023/07/27 06:17:11;;;;;;;3.70;1.60;;;17.20;99.90;;;;;;1928055;72;22145;-80
2023/07/27 06:20:05;;;;;;;3.65;1.72;;;17.30;99.90;;;;;;1901048;74;21106;-79
2023/07/27 06:22:56;;;;;;;3.50;1.80;;;17.30;99.90;;;;;;1878685;75;21114;-80
2023/07/27 06:25:49;;;;;;;4.30;2.05;;;17.40;99.90;;;;;;1892158;74;21214;-80
2023/07/27 06:31:20;;;;;;;2.40;1.50;;;17.50;99.90;;;;;;1940485;72;22341;-81
2023/07/27 06:34:12;;;;;;;5.10;2.00;;;17.50;99.90;;;;;;1891649;75;21063;-84
2023/07/27 06:37:07;;;;;;;3.90;2.05;;;17.50;99.90;;;;;;1894878;75;21109;-79
2023/07/27 06:42:37;;;;;;;4.87;1.98;;;17.70;99.90;;;;;;1951428;72;22271;-81
2023/07/27 06:45:28;;;;;;;2.40;1.52;;;17.70;99.90;;;;;;1916272;73;21175;-80
2023/07/27 06:48:19;;;;;;;3.70;1.80;;;17.80;99.90;;;;;;1916697;73;21102;-80
2023/07/27 06:53:51;;;;;;;4.22;2.80;;;17.90;99.90;;;;;;1930203;72;22172;-82
2023/07/27 06:59:22;;;;;;;2.62;1.95;;;18.10;99.90;;;;;;1941428;72;22350;-81
2023/07/27 07:02:13;;;;;;;3.37;2.08;;;18.10;99.90;;;;;;1887723;75;21110;-81
2023/07/27 07:05:06;;;;;;;3.90;2.30;;;18.20;99.90;;;;;;1902524;75;21160;-81
2023/07/27 07:07:58;;;;;;;3.65;1.77;;;18.30;99.90;;;;;;1914887;75;21137;-82
2023/07/27 07:10:52;;;;;;;2.83;1.90;;;18.30;99.90;;;;;;1903095;75;21043;-80
2023/07/27 07:13:44;;;;;;;3.45;1.70;;;18.30;99.90;;;;;;1893109;75;21126;-80
2023/07/27 07:16:35;;;;;;;4.95;2.10;;;18.30;99.90;;;;;;1898934;75;22123;-80
2023/07/27 07:22:06;;;;;;;1.72;1.57;;;18.50;99.90;;;;;;1952788;72;22282;-80
2023/07/27 07:24:58;;;;;;;2.80;1.52;;;18.60;99.90;;;;;;1924857;73;21142;-80
2023/07/27 07:27:50;;;;;;;2.50;1.67;;;18.60;99.90;;;;;;1931366;73;21170;-80
2023/07/27 07:33:22;;;;;;;2.52;1.45;;;18.70;99.90;;;;;;1960073;72;22154;-80
2023/07/27 07:36:14;;;;;;;2.87;1.45;;;18.80;99.90;;;;;;1920258;73;21233;-79
2023/07/27 07:39:05;;;;;;;2.77;1.60;;;18.90;99.90;;;;;;1919343;73;21393;-79
2023/07/27 07:41:58;;;;;;;2.33;1.45;;;19.00;99.90;;;;;;1931721;73;21102;-80
2023/07/27 07:44:50;;;;;;;2.72;1.82;;;19.10;99.90;;;;;;1916702;75;21600;-80
2023/07/27 07:47:41;;;;;;;3.08;1.82;;;19.20;99.90;;;;;;1928953;73;21101;-82
2023/07/27 07:50:36;;;;;;;2.55;1.95;;;19.30;99.90;;;;;;1938857;73;21134;-80
2023/07/27 07:53:27;;;;;;;3.40;1.60;;;19.30;99.90;;;;;;1937786;73;21171;-81
2023/07/27 07:59:01;;;;;;;2.87;1.80;;;19.60;99.90;;;;;;1927176;72;22187;-80
2023/07/27 08:01:53;;;;;;;2.20;1.57;;;19.60;99.90;;;;;;1892193;75;21171;-81
2023/07/27 08:04:44;;;;;;;4.10;1.65;;;19.70;99.90;;;;;;1884806;75;21203;-80
2023/07/27 08:07:36;;;;;;;1.85;1.50;;;19.80;99.90;;;;;;1890118;75;21126;-80
2023/07/27 08:10:27;;;;;;;2.95;1.82;;;19.80;99.90;;;;;;1879093;75;21588;-80
2023/07/27 08:13:19;;;;;;;5.10;1.40;;;19.90;99.90;;;;;;1879927;75;21145;-80
2023/07/27 08:18:51;;;;;;;3.20;1.40;;;20.10;99.90;;;;;;1974277;72;22165;-81
2023/07/27 08:21:42;;;;;;;2.30;1.52;;;20.20;99.90;;;;;;1916288;75;21216;-79
2023/07/27 08:24:34;;;;;;;4.83;1.77;;;20.30;99.90;;;;;;1918613;73;21147;-79
2023/07/27 08:30:07;;;;;;;2.47;1.62;;;20.40;99.90;;;;;;1924259;72;22168;-79
2023/07/27 08:35:39;;;;;;;3.90;1.50;;;20.60;99.90;;;;;;1955467;72;22154;-79
2023/07/27 08:38:31;;;;;;;2.05;1.40;;;20.70;99.90;;;;;;1916183;75;21601;-80
2023/07/27 08:41:22;;;;;;;2.55;1.50;;;20.70;99.90;;;;;;1895087;75;21138;-80
2023/07/27 08:46:57;;;;;;;2.08;1.65;;;20.80;99.90;;;;;;1943899;72;22113;-80
2023/07/27 08:49:50;;;;;;;2.10;1.90;;;20.90;99.90;;;;;;1924883;73;21122;-80
2023/07/27 08:55:21;;;;;;;2.00;1.30;;;21.10;99.90;;;;;;1949210;72;22170;-80
2023/07/27 08:58:15;;;;;;;2.15;1.75;;;21.10;99.90;;;;;;1906156;73;21132;-79
2023/07/27 09:01:06;;;;;;;3.08;1.52;;;21.10;99.90;;;;;;1901946;74;21096;-79
2023/07/27 09:03:58;;;;;;;1.95;1.47;;;21.20;99.90;;;;;;1906627;74;21095;-79
2023/07/27 09:06:50;;;;;;;3.20;1.60;;;21.40;99.90;;;;;;1904834;75;21644;-79
2023/07/27 09:12:23;;;;;;;1.85;1.60;;;21.60;99.90;;;;;;1956914;72;22143;-79
2023/07/27 09:15:16;;;;;;;1.90;1.67;;;21.80;99.90;;;;;;1892026;75;21106;-80
2023/07/27 09:20:50;;;;;;;1.82;1.55;;;22.00;99.90;;;;;;1953730;72;22182;-80
2023/07/27 09:23:41;;;;;;;2.30;1.72;;;22.10;99.90;;;;;;1897345;75;21075;-81
2023/07/27 09:26:33;;;;;;;2.22;1.30;;;22.10;99.90;;;;;;1894545;75;21121;-80
2023/07/27 09:29:25;;;;;;;3.17;1.65;;;22.20;99.90;;;;;;1894627;75;21901;-79
2023/07/27 09:32:16;;;;;;;4.30;3.10;;;22.30;99.90;;;;;;1897707;75;21105;-80
2023/07/27 09:37:54;;;;;;;2.50;2.00;;;22.50;99.90;;;;;;1948857;72;22177;-79
2023/07/27 09:40:47;;;;;;;2.58;1.40;;;22.60;99.90;;;;;;1906090;75;21110;-79
2023/07/27 09:43:39;;;;;;;2.42;1.60;;;22.60;99.90;;;;;;1902584;73;21101;-78
2023/07/27 09:46:31;;;;;;;2.35;1.50;;;22.60;99.90;;;;;;1922977;73;21547;-79
2023/07/27 09:49:23;;;;;;;1.70;1.47;;;22.60;99.90;;;;;;1906279;75;21148;-79
2023/07/27 09:52:15;;;;;;;1.60;1.30;;;22.70;99.90;;;;;;1894400;75;21150;-79
2023/07/27 09:55:07;;;;;;;1.90;1.57;;;22.70;99.90;;;;;;1895792;75;21168;-79
2023/07/27 09:58:00;;;;;;;6.35;1.80;;;22.80;99.90;;;;;;1899270;75;21098;-79
2023/07/27 10:00:52;;;;;;;2.15;1.65;;;23.00;99.90;;;;;;1894635;75;21157;-79
2023/07/27 10:03:45;;;;;;;2.80;1.42;;;23.20;99.90;;;;;;1895096;75;21114;-79
2023/07/27 10:06:37;;;;;;;1.75;1.40;;;23.30;99.90;;;;;;1906598;75;21191;-79
2023/07/27 10:09:29;;;;;;;2.77;1.40;;;23.30;99.90;;;;;;1898802;75;21106;-79
2023/07/27 10:12:29;;;;;;;1.62;1.20;;;23.40;99.90;;;;;;1896158;75;21087;-79
2023/07/27 10:18:03;;;;;;;1.67;1.55;;;23.60;99.90;;;;;;1951235;72;22353;-79
2023/07/27 10:20:57;;;;;;;2.27;1.65;;;23.70;99.90;;;;;;1883668;75;21122;-80
2023/07/27 10:23:56;;;;;;;2.70;1.62;;;23.80;99.90;;;;;;1883868;76;21099;-79
2023/07/27 10:26:51;;;;;;;1.95;1.30;;;23.90;99.90;;;;;;1860771;76;21071;-80
2023/07/27 10:29:45;;;;;;;1.57;1.42;;;23.90;99.90;;;;;;1894796;75;21090;-79
2023/07/27 10:32:38;;;;;;;4.25;1.65;;;23.90;99.90;;;;;;1895020;75;21138;-78
2023/07/27 10:38:15;;;;;;;2.83;1.60;;;24.00;99.90;;;;;;1961905;72;22244;-78
2023/07/27 10:41:16;;;;;;;2.62;1.47;;;24.10;99.90;;;;;;1924023;73;21106;-80
2023/07/27 10:44:20;;;;;;;1.77;1.60;;;24.20;99.90;;;;;;1922475;73;21198;-71
2023/07/27 10:47:13;;;;;;;2.67;1.57;;;24.30;99.90;;;;;;1916230;75;21173;-75
2023/07/27 10:50:06;;;;;;;2.22;1.35;;;24.30;99.90;;;;;;1916718;75;21143;-71
2023/07/27 10:52:58;;;;;;;1.70;1.40;;;24.20;99.90;;;;;;1916626;75;21117;-77
2023/07/27 10:55:50;;;;;;;1.65;1.40;;;24.30;99.90;;;;;;1916667;73;21123;-76
2023/07/27 10:58:44;;;;;;;2.00;1.30;;;24.40;99.90;;;;;;1916642;75;21601;-76
2023/07/27 11:01:36;;;;;;;2.35;1.30;;;24.50;99.90;;;;;;1917690;75;21176;-76
2023/07/27 11:04:28;;;;;;;2.17;1.32;;;24.50;99.90;;;;;;1916593;75;21075;-76
2023/07/27 11:07:28;;;;;;;2.30;1.70;;;24.60;99.90;;;;;;1916454;75;21132;-76
2023/07/27 11:13:07;;;;;;;2.17;1.47;;;24.90;99.90;;;;;;1949952;72;22196;-76
2023/07/27 11:15:59;;;;;;;2.52;1.52;;;25.10;99.90;;;;;;1901816;75;21106;-76
2023/07/27 11:18:51;;;;;;;3.08;1.80;;;25.20;99.90;;;;;;1897365;75;21156;-77
2023/07/27 11:21:43;;;;;;;1.98;1.60;;;25.40;99.30;;;;;;1885438;75;21430;-76
2023/07/27 11:24:35;;;;;;;1.40;1.30;;;25.40;98.60;;;;;;1905429;75;21098;-77
2023/07/27 11:27:27;;;;;;;2.12;1.57;;;25.40;98.00;;;;;;1904359;75;21615;-77
2023/07/27 11:30:21;;;;;;;2.42;1.65;;;25.50;98.10;;;;;;1900884;75;21169;-76
2023/07/27 11:33:13;;;;;;;2.08;1.60;;;25.50;97.90;;;;;;1894553;75;21100;-76
2023/07/27 11:36:06;;;;;;;2.42;1.45;;;25.60;97.50;;;;;;1911415;75;21213;-76
2023/07/27 11:38:57;;;;;;;2.42;1.30;;;25.70;97.70;;;;;;1885102;75;21062;-76
2023/07/27 11:41:50;;;;;;;3.10;1.30;;;25.80;97.60;;;;;;1899928;75;21159;-76
2023/07/27 11:44:41;;;;;;;3.00;1.50;;;26.00;96.30;;;;;;1896158;75;21175;-76
2023/07/27 11:47:38;;;;;;;1.98;1.15;;;26.00;96.30;;;;;;1887835;75;21059;-76
2023/07/27 11:50:30;;;;;;;2.55;1.45;;;26.10;95.80;;;;;;1906366;75;21120;-76
2023/07/27 11:53:25;;;;;;;1.57;1.30;;;26.20;96.10;;;;;;1883925;76;21106;-76
2023/07/27 11:56:18;;;;;;;2.85;1.37;;;26.20;96.00;;;;;;1883942;76;21113;-77
2023/07/27 11:59:09;;;;;;;3.08;1.60;;;26.20;96.40;;;;;;1905822;75;21094;-76
2023/07/27 12:02:01;;;;;;;2.17;1.27;;;26.40;96.20;;;;;;1886303;73;21126;-76
2023/07/27 12:04:53;;;;;;;1.80;1.25;;;26.60;95.60;;;;;;1887921;73;21230;-76
2023/07/27 12:07:46;;;;;;;3.62;1.40;;;26.60;95.60;;;;;;1899636;75;21134;-76
2023/07/27 12:10:39;;;;;;;1.30;1.20;;;26.60;94.80;;;;;;1896418;75;21066;-76
2023/07/27 12:13:36;;;;;;;3.37;1.40;;;26.60;95.10;;;;;;1885120;75;21135;-76
2023/07/27 12:16:30;;;;;;;1.80;1.20;;;26.70;94.80;;;;;;1878743;75;21071;-76
2023/07/27 12:19:23;;;;;;;3.67;1.20;;;26.80;95.10;;;;;;1904248;75;21660;-76
2023/07/27 12:22:14;;;;;;;2.22;1.22;;;26.90;95.10;;;;;;1901150;75;21098;-76
2023/07/27 12:25:08;;;;;;;2.47;1.10;;;27.10;94.50;;;;;;1905206;75;21163;-76
2023/07/27 12:28:02;;;;;;;3.87;1.32;;;27.20;94.80;;;;;;1893061;75;21208;-76
2023/07/27 12:30:55;;;;;;;2.60;1.27;;;27.40;93.50;;;;;;1905107;75;21106;-76
2023/07/27 12:33:50;;;;;;;1.70;1.02;;;27.50;93.70;;;;;;1903374;75;21105;-76
2023/07/27 12:36:42;;;;;;;2.42;1.22;;;27.60;93.80;;;;;;1897368;75;21134;-77
2023/07/27 12:39:36;;;;;;;2.45;1.17;;;27.60;93.30;;;;;;1881982;75;21122;-76
2023/07/27 12:42:27;;;;;;;2.27;1.20;;;27.60;93.60;;;;;;1881895;75;21205;-77
2023/07/27 12:45:21;;;;;;;2.50;1.17;;;27.80;93.10;;;;;;1891695;75;21103;-76
2023/07/27 12:48:13;;;;;;;2.87;1.17;;;27.90;92.50;;;;;;1882553;75;21191;-76
2023/07/27 12:51:04;;;;;;;2.45;1.25;;;28.00;92.50;;;;;;1904832;75;21113;-76
2023/07/27 12:53:56;;;;;;;1.95;1.07;;;28.10;91.90;;;;;;1876252;75;21172;-77
2023/07/27 12:56:47;;;;;;;3.65;1.05;;;28.30;91.90;;;;;;1881940;75;21098;-77
2023/07/27 12:59:40;;;;;;;2.98;1.05;;;28.30;91.40;;;;;;1886974;75;21167;-77
2023/07/27 13:02:31;;;;;;;3.27;1.35;;;28.40;91.20;;;;;;1883070;75;21126;-77
2023/07/27 13:05:23;;;;;;;1.20;1.00;;;28.40;90.80;;;;;;1881694;75;21202;-77
2023/07/27 13:08:14;;;;;;;2.45;1.05;;;28.40;88.90;;;;;;1881864;75;21087;-77
2023/07/27 13:11:05;;;;;;;1.15;1.00;;;28.40;89.20;;;;;;1886150;75;21094;-77
2023/07/27 13:13:56;;;;;;;3.02;0.93;;;28.50;88.70;;;;;;1905409;74;21135;-78
2023/07/27 13:16:48;;;;;;;2.35;1.02;;;28.40;86.60;;;;;;1928931;74;21043;-77
2023/07/27 13:19:40;;;;;;;1.45;1.10;;;28.50;86.50;;;;;;1909487;74;21618;-77
2023/07/27 13:22:31;;;;;;;1.22;1.12;;;28.50;86.00;;;;;;1912702;74;21106;-78
2023/07/27 13:25:23;;;;;;;1.98;1.12;;;28.60;86.90;;;;;;1913003;74;21119;-77
2023/07/27 13:28:14;;;;;;;1.30;1.00;;;28.60;86.30;;;;;;1923395;74;21158;-77
2023/07/27 13:31:05;;;;;;;1.45;1.12;;;28.60;85.50;;;;;;1921098;74;21185;-77
2023/07/27 13:33:57;;;;;;;2.50;1.00;;;28.70;84.40;;;;;;1919332;74;21152;-78
2023/07/27 13:36:48;;;;;;;1.55;1.10;;;28.80;83.10;;;;;;1914655;74;21090;-77
2023/07/27 13:39:41;;;;;;;2.58;1.15;;;28.80;83.40;;;;;;1922052;74;21102;-77
2023/07/27 13:42:33;;;;;;;2.67;1.10;;;28.90;84.00;;;;;;1921481;74;21174;-78
2023/07/27 13:45:24;;;;;;;0.93;0.90;;;29.20;83.50;;;;;;1920913;74;21071;-77
2023/07/27 13:48:15;;;;;;;2.85;1.00;;;29.30;82.40;;;;;;1915895;74;21097;-77
2023/07/27 13:51:09;;;;;;;1.35;1.00;;;29.50;82.20;;;;;;1910758;74;21562;-78
2023/07/27 13:54:01;;;;;;;1.20;0.95;;;29.60;80.90;;;;;;1909804;74;21101;-77
2023/07/27 13:56:52;;;;;;;1.15;1.00;;;29.60;80.30;;;;;;1910020;74;21702;-77
2023/07/27 13:59:44;;;;;;;1.62;0.90;;;29.70;80.60;;;;;;1913461;74;21050;-77
2023/07/27 14:02:35;;;;;;;1.87;0.88;;;30.20;79.80;;;;;;1899042;74;21148;-77
2023/07/27 14:05:27;;;;;;;1.45;0.95;;;30.30;79.10;;;;;;1920829;74;21689;-78
2023/07/27 14:08:18;;;;;;;0.88;0.88;;;30.40;78.90;;;;;;1901518;74;21134;-81
2023/07/27 14:11:10;;;;;;;1.52;0.90;;;30.60;78.40;;;;;;1912233;74;21122;-77
2023/07/27 14:14:02;;;;;;;1.02;0.90;;;31.00;78.20;;;;;;1910060;74;21205;-77
2023/07/27 14:16:54;;;;;;;1.15;0.88;;;31.20;76.90;;;;;;1893755;75;21110;-78
2023/07/27 14:19:46;;;;;;;1.70;0.90;;;31.40;76.00;;;;;;1911164;75;21137;-78
2023/07/27 14:22:37;;;;;;;1.05;0.88;;;31.60;74.90;;;;;;1883132;76;21172;-78
2023/07/27 14:25:30;;;;;;;1.15;1.00;;;31.70;74.50;;;;;;1899257;75;21138;-78
2023/07/27 14:28:21;;;;;;;0.80;0.80;;;31.80;73.70;;;;;;1894210;75;21194;-78
2023/07/27 14:31:13;;;;;;;1.30;1.07;;;32.00;73.00;;;;;;1888085;75;21187;-78
2023/07/27 14:34:05;;;;;;;1.37;0.80;;;32.30;72.50;;;;;;1885726;75;21119;-78
2023/07/27 14:36:57;;;;;;;1.87;1.10;;;32.30;71.70;;;;;;1900076;75;21201;-77
2023/07/27 14:39:48;;;;;;;1.90;1.02;;;32.50;72.10;;;;;;1895217;75;21504;-78
2023/07/27 14:42:45;;;;;;;1.02;0.90;;;32.70;71.40;;;;;;1893811;75;21656;-77
2023/07/27 14:45:41;;;;;;;1.10;0.80;;;32.80;71.10;;;;;;1901394;73;21093;-80
2023/07/27 14:48:32;;;;;;;1.30;1.00;;;32.80;70.40;;;;;;1892840;73;21082;-80
2023/07/27 14:51:23;;;;;;;1.05;0.90;;;32.80;70.10;;;;;;1908540;73;21553;-80
2023/07/27 14:54:15;;;;;;;1.95;0.82;;;32.90;70.10;;;;;;1909087;75;21136;-80
2023/07/27 14:57:08;;;;;;;1.05;0.95;;;32.70;70.10;;;;;;1909760;75;21155;-80
2023/07/27 15:00:01;;;;;;;2.12;0.98;;;32.80;70.60;;;;;;1893542;75;21183;-80
2023/07/27 15:02:54;;;;;;;1.50;0.95;;;32.80;70.10;;;;;;1882905;75;21191;-81
2023/07/27 15:05:48;;;;;;;2.98;0.90;;;32.90;70.20;;;;;;1896271;75;21183;-79
2023/07/27 15:08:39;;;;;;;2.62;1.00;;;32.80;69.80;;;;;;1897690;73;21087;-79
2023/07/27 15:11:31;;;;;;;0.95;0.85;;;33.50;70.00;;;;;;1913184;73;21102;-78
2023/07/27 15:14:24;;;;;;;0.93;0.90;;;33.60;69.30;;;;;;1901289;75;21114;-79
2023/07/27 15:17:15;;;;;;;2.22;1.10;;;33.80;67.80;;;;;;1862400;76;21129;-79
2023/07/27 15:20:09;;;;;;;1.47;0.85;;;33.70;68.30;;;;;;1849268;76;21800;-79
2023/07/27 15:23:03;;;;;;;1.60;0.90;;;34.40;67.80;;;;;;1869708;76;21254;-79
2023/07/27 15:25:59;;;;;;;1.12;0.85;;;34.70;66.70;;;;;;1870016;76;21611;-79
2023/07/27 15:28:50;;;;;;;1.17;1.00;;;34.40;66.90;;;;;;1862978;76;21208;-79
2023/07/27 15:31:41;;;;;;;1.52;1.05;;;34.50;66.50;;;;;;1861175;76;21151;-78
2023/07/27 15:34:33;;;;;;;1.42;0.90;;;33.90;66.80;;;;;;1852729;76;21148;-79
2023/07/27 15:37:24;;;;;;;1.52;1.00;;;34.00;67.30;;;;;;1870355;76;21094;-79
2023/07/27 15:40:17;;;;;;;1.25;0.85;;;34.10;67.70;;;;;;1866410;76;21141;-79
2023/07/27 15:43:08;;;;;;;1.82;1.10;;;34.20;67.30;;;;;;1861925;76;21109;-78
2023/07/27 15:46:02;;;;;;;1.22;1.02;;;34.50;67.30;;;;;;1859166;76;21572;-79
2023/07/27 15:48:53;;;;;;;2.60;1.00;;;34.20;67.00;;;;;;1858955;76;21131;-79
2023/07/27 15:51:44;;;;;;;1.70;0.98;;;34.40;66.90;;;;;;1863188;76;21112;-78
2023/07/27 15:54:36;;;;;;;1.32;0.90;;;34.60;66.60;;;;;;1856503;76;21081;-79
2023/07/27 15:57:27;;;;;;;1.17;0.98;;;34.90;65.90;;;;;;1869670;76;21216;-79
2023/07/27 16:00:20;;;;;;;1.22;0.90;;;35.10;65.40;;;;;;1870149;76;21109;-78
2023/07/27 16:05:52;;;;;;;0.95;0.80;;;35.90;64.20;;;;;;1960788;72;22329;-78
2023/07/27 16:08:43;;;;;;;1.20;0.90;;;36.30;62.90;;;;;;1918791;73;21126;-78
2023/07/27 16:11:35;;;;;;;3.15;1.00;;;36.50;62.60;;;;;;1915829;75;21553;-78
2023/07/27 16:14:26;;;;;;;1.12;0.82;;;36.50;61.50;;;;;;1916191;75;21566;-78
2023/07/27 16:19:56;;;;;;;1.55;0.90;;;37.20;60.20;;;;;;1929477;72;22691;-78
2023/07/27 16:25:27;;;;;;;2.80;1.12;;;37.40;59.10;;;;;;1955242;72;22259;-78
2023/07/27 16:31:00;;;;;;;1.10;0.88;;;38.70;58.30;;;;;;1945966;72;22250;-78
2023/07/27 16:33:51;;;;;;;1.37;0.90;;;38.60;57.20;;;;;;1859532;76;21105;-78
2023/07/27 16:36:42;;;;;;;1.62;1.00;;;37.80;57.20;;;;;;1882003;75;21183;-78
2023/07/27 16:44:53;;;;;;;3.95;1.27;;;38.40;57.50;;;;;;1941122;72;22126;-78
2023/07/27 16:50:24;;;;;;;1.10;0.90;;;39.10;55.70;;;;;;1932220;72;22183;-79
2023/07/27 16:53:15;;;;;;;2.33;1.17;;;40.10;54.40;;;;;;1906696;73;21164;-79
2023/07/27 16:56:11;;;;;;;1.22;1.00;;;40.30;53.60;;;;;;1904705;73;21222;-78
2023/07/27 16:59:04;;;;;;;1.50;1.30;;;41.50;53.60;;;;;;1884050;76;21143;-78
2023/07/27 17:01:57;;;;;;;3.67;1.10;;;41.70;51.60;;;;;;1908139;75;21094;-78
2023/07/27 17:04:51;;;;;;;1.40;1.20;;;42.60;50.40;;;;;;1903695;75;21150;-77
2023/07/27 17:07:41;;;;;;;3.10;2.15;;;42.40;50.40;;;;;;1883568;76;21122;-78
2023/07/27 17:10:33;;;;;;;2.12;1.75;;;43.10;48.90;;;;;;1914252;75;21094;-78
2023/07/27 17:13:24;;;;;;;2.30;1.57;;;43.30;48.60;;;;;;1914668;75;21114;-78
2023/07/27 17:16:18;;;;;;;3.08;2.47;;;43.70;48.50;;;;;;1893403;75;21114;-77
2023/07/27 17:19:09;;;;;;;3.17;2.05;;;42.60;47.00;;;;;;1914593;75;21094;-77
2023/07/27 17:22:00;;;;;;;2.72;2.40;;;41.50;49.10;;;;;;1894526;75;21111;-78